Time;durP1;ratioP1;P1;durP2;ratioP2;P2;SDS_P1;SDS_P2;PMS_P1;PMS_P2;Temp;Humidity;BMP_temperature;BMP_pressure;BME280_temperature;BME280_humidity;BME280_pressure;Samples;Min_cycle;Max_cycle;Signal;HPM_P1;HPM_P2
2021/09/15 00:00:17;;;;;;;31.98;25.85;;;;;;;;;;5070711;28;20404;-66
2021/09/15 00:03:21;;;;;;;32.38;26.98;;;;;;;;;;5070658;28;20055;-66
2021/09/15 00:06:26;;;;;;;36.30;27.40;;;;;;;;;;5070657;28;20047;-67
2021/09/15 00:09:30;;;;;;;36.67;27.10;;;;;;;;;;5070994;28;20060;-67
2021/09/15 00:12:35;;;;;;;37.83;26.90;;;;;;;;;;5070871;28;20036;-67
2021/09/15 00:15:39;;;;;;;33.97;26.33;;;;;;;;;;5070728;28;20043;-67
2021/09/15 00:18:43;;;;;;;33.63;26.30;;;;;;;;;;5070602;28;20044;-67
2021/09/15 00:21:48;;;;;;;38.08;25.55;;;;;;;;;;5070612;28;20071;-67
2021/09/15 00:24:52;;;;;;;37.80;25.25;;;;;;;;;;5070402;28;20043;-66
2021/09/15 00:27:56;;;;;;;36.78;25.42;;;;;;;;;;5070365;28;20534;-67
2021/09/15 00:31:00;;;;;;;37.63;24.88;;;;;;;;;;5069556;28;20047;-66
2021/09/15 00:34:05;;;;;;;31.63;25.10;;;;;;;;;;5069506;28;20051;-67
2021/09/15 00:37:09;;;;;;;34.80;26.42;;;;;;;;;;5070486;28;20035;-66
2021/09/15 00:40:13;;;;;;;31.58;23.98;;;;;;;;;;5070465;28;20047;-67
2021/09/15 00:43:17;;;;;;;31.67;25.50;;;;;;;;;;5070823;28;20399;-66
2021/09/15 00:46:22;;;;;;;34.35;26.33;;;;;;;;;;5069543;28;20043;-67
2021/09/15 00:49:28;;;;;;;35.80;26.52;;;;;;;;;;5069489;28;20051;-67
2021/09/15 00:52:33;;;;;;;34.55;26.65;;;;;;;;;;5070230;28;20044;-67
2021/09/15 00:55:39;;;;;;;32.17;25.90;;;;;;;;;;5070564;28;20044;-67
2021/09/15 00:58:45;;;;;;;33.58;25.45;;;;;;;;;;5069617;28;20503;-67
2021/09/15 01:01:49;;;;;;;32.45;24.20;;;;;;;;;;5073065;28;20043;-67
2021/09/15 01:04:54;;;;;;;42.08;25.45;;;;;;;;;;5061650;28;20515;-67
2021/09/15 01:08:00;;;;;;;32.47;24.67;;;;;;;;;;5073676;28;20234;-67
2021/09/15 01:11:04;;;;;;;40.25;26.98;;;;;;;;;;5074071;28;20048;-67
2021/09/15 01:14:14;;;;;;;36.60;26.80;;;;;;;;;;5072864;28;20051;-67
2021/09/15 01:17:37;;;;;;;38.60;26.38;;;;;;;;;;5073618;28;20048;-67
2021/09/15 01:21:07;;;;;;;31.17;25.63;;;;;;;;;;5068879;28;20511;-67
2021/09/15 01:24:30;;;;;;;31.58;25.10;;;;;;;;;;5073625;28;20051;-67
2021/09/15 01:27:57;;;;;;;30.88;24.88;;;;;;;;;;5073471;28;20079;-67
2021/09/15 01:31:06;;;;;;;33.38;25.35;;;;;;;;;;5072762;28;20130;-67
2021/09/15 01:34:10;;;;;;;34.00;26.35;;;;;;;;;;5072581;28;20416;-67
2021/09/15 01:37:16;;;;;;;38.58;27.15;;;;;;;;;;5072553;28;20103;-67
2021/09/15 01:40:34;;;;;;;37.63;27.63;;;;;;;;;;5072476;28;20048;-66
2021/09/15 01:43:39;;;;;;;39.35;26.52;;;;;;;;;;5072394;28;20036;-67
2021/09/15 01:46:43;;;;;;;33.28;25.05;;;;;;;;;;5073327;28;20051;-67
2021/09/15 01:49:49;;;;;;;32.47;23.80;;;;;;;;;;5072397;28;20404;-67
2021/09/15 01:52:53;;;;;;;28.10;23.40;;;;;;;;;;5073127;28;20043;-67
2021/09/15 01:56:03;;;;;;;31.52;22.52;;;;;;;;;;5072107;28;20071;-67
2021/09/15 01:59:08;;;;;;;35.80;24.00;;;;;;;;;;5073225;28;20039;-67
2021/09/15 02:02:32;;;;;;;29.45;23.10;;;;;;;;;;5074182;28;20404;-67
2021/09/15 02:05:41;;;;;;;30.15;22.92;;;;;;;;;;5071950;28;20048;-67
2021/09/15 02:09:06;;;;;;;26.30;21.55;;;;;;;;;;5072983;28;20079;-67
2021/09/15 02:12:18;;;;;;;28.65;22.63;;;;;;;;;;5071464;28;20557;-67
2021/09/15 02:15:23;;;;;;;25.33;22.23;;;;;;;;;;5072811;28;20640;-67
2021/09/15 02:18:29;;;;;;;28.02;20.70;;;;;;;;;;5060680;28;20428;-67
2021/09/15 02:22:08;;;;;;;31.27;20.88;;;;;;;;;;5051309;28;20048;-67
2021/09/15 02:25:31;;;;;;;24.13;19.83;;;;;;;;;;5072308;28;20510;-67
2021/09/15 02:28:53;;;;;;;;;;;;;;;;;;5072983;28;20059;-67
2021/09/15 02:32:23;;;;;;;33.03;22.05;;;;;;;;;;5071539;28;19915;-67
2021/09/15 02:35:41;;;;;;;26.67;20.70;;;;;;;;;;5071367;28;20047;-67
2021/09/15 02:38:56;;;;;;;26.35;21.05;;;;;;;;;;5071356;28;20059;-67
2021/09/15 02:42:19;;;;;;;28.50;21.98;;;;;;;;;;5072131;28;20063;-66
2021/09/15 02:45:36;;;;;;;28.00;21.95;;;;;;;;;;5071247;28;20063;-67
2021/09/15 02:48:49;;;;;;;28.40;21.60;;;;;;;;;;5071028;28;20617;-67
2021/09/15 02:52:00;;;;;;;29.58;21.35;;;;;;;;;;5072113;28;20051;-67
2021/09/15 02:55:14;;;;;;;31.42;22.30;;;;;;;;;;5070969;28;20051;-67
2021/09/15 02:58:19;;;;;;;22.90;20.23;;;;;;;;;;5071022;28;20088;-67
2021/09/15 03:01:28;;;;;;;24.85;21.17;;;;;;;;;;5071660;28;20051;-67
2021/09/15 03:04:43;;;;;;;25.63;21.00;;;;;;;;;;5069858;28;20047;-67
2021/09/15 03:08:06;;;;;;;24.48;20.20;;;;;;;;;;5070144;28;20060;-66
2021/09/15 03:11:10;;;;;;;25.48;21.75;;;;;;;;;;5070805;28;20039;-67
2021/09/15 03:14:14;;;;;;;27.20;21.92;;;;;;;;;;5071313;28;20516;-67
2021/09/15 03:17:19;;;;;;;26.05;20.35;;;;;;;;;;5070528;28;20622;-67
2021/09/15 03:20:24;;;;;;;27.70;20.52;;;;;;;;;;5070729;28;20043;-67
2021/09/15 03:23:28;;;;;;;24.42;19.95;;;;;;;;;;5069888;28;20044;-67
2021/09/15 03:26:32;;;;;;;28.10;21.20;;;;;;;;;;5071247;28;20395;-66
2021/09/15 03:29:36;;;;;;;22.35;19.58;;;;;;;;;;5070549;28;20047;-66
2021/09/15 03:32:41;;;;;;;23.25;18.35;;;;;;;;;;5070558;28;20039;-66
2021/09/15 03:35:47;;;;;;;26.38;18.63;;;;;;;;;;5070235;28;20036;-66
2021/09/15 03:38:52;;;;;;;23.98;18.52;;;;;;;;;;5070450;28;20399;-66
2021/09/15 03:41:57;;;;;;;28.65;18.67;;;;;;;;;;5070487;28;20043;-66
2021/09/15 03:45:01;;;;;;;23.98;18.95;;;;;;;;;;5070022;28;20051;-66
2021/09/15 03:48:06;;;;;;;27.80;19.05;;;;;;;;;;5070253;28;20048;-66
2021/09/15 03:51:10;;;;;;;23.85;19.63;;;;;;;;;;5070172;28;20404;-66
2021/09/15 03:54:15;;;;;;;30.38;21.13;;;;;;;;;;5069870;28;20052;-66
2021/09/15 03:57:20;;;;;;;28.70;21.65;;;;;;;;;;5069949;28;20044;-66
2021/09/15 04:00:24;;;;;;;28.45;21.40;;;;;;;;;;5070086;28;20040;-66
2021/09/15 04:03:35;;;;;;;26.67;19.38;;;;;;;;;;5070106;28;20043;-66
2021/09/15 04:06:39;;;;;;;26.55;20.73;;;;;;;;;;5069793;28;20044;-66
2021/09/15 04:09:46;;;;;;;26.67;21.13;;;;;;;;;;5070593;28;20056;-66
2021/09/15 04:12:50;;;;;;;28.48;21.60;;;;;;;;;;5069937;28;20048;-66
2021/09/15 04:15:56;;;;;;;27.92;22.65;;;;;;;;;;5069867;28;20040;-66
2021/09/15 04:19:01;;;;;;;26.58;22.40;;;;;;;;;;5070816;28;20051;-66
2021/09/15 04:22:07;;;;;;;29.83;22.80;;;;;;;;;;5069900;28;20535;-66
2021/09/15 04:31:58;;;;;;;29.45;21.92;;;;;;;;;;5069555;28;20396;-66
2021/09/15 04:35:02;;;;;;;27.05;21.58;;;;;;;;;;5071412;28;20044;-71
2021/09/15 04:38:07;;;;;;;31.65;21.60;;;;;;;;;;5073462;28;20043;-70
2021/09/15 04:41:11;;;;;;;29.65;22.15;;;;;;;;;;5073379;28;20048;-71
2021/09/15 04:44:17;;;;;;;29.17;22.35;;;;;;;;;;5073587;28;20043;-70
2021/09/15 04:47:22;;;;;;;27.75;23.13;;;;;;;;;;5074211;28;20515;-71
2021/09/15 04:50:28;;;;;;;28.83;22.48;;;;;;;;;;5073601;28;20052;-71
2021/09/15 04:53:33;;;;;;;29.85;24.02;;;;;;;;;;5073223;28;20039;-71
2021/09/15 04:56:37;;;;;;;35.28;23.60;;;;;;;;;;5074483;28;20052;-71
2021/09/15 04:59:41;;;;;;;27.77;23.48;;;;;;;;;;5073080;28;20044;-71
2021/09/15 05:02:46;;;;;;;37.45;23.08;;;;;;;;;;5073543;28;20522;-71
2021/09/15 05:06:05;;;;;;;33.25;23.77;;;;;;;;;;5073278;28;20047;-70
2021/09/15 05:09:10;;;;;;;31.17;25.40;;;;;;;;;;5073045;28;20457;-70
2021/09/15 05:12:21;;;;;;;35.40;28.23;;;;;;;;;;5073041;28;20036;-70
2021/09/15 05:15:26;;;;;;;36.65;26.20;;;;;;;;;;5073080;28;20499;-70
2021/09/15 05:18:34;;;;;;;36.17;26.35;;;;;;;;;;5072905;28;20055;-70
2021/09/15 05:21:39;;;;;;;37.20;27.70;;;;;;;;;;5072916;28;20491;-70
2021/09/15 05:24:43;;;;;;;40.10;28.48;;;;;;;;;;5072951;28;20044;-70
2021/09/15 05:27:48;;;;;;;41.00;31.55;;;;;;;;;;5072824;28;20056;-70
2021/09/15 05:30:52;;;;;;;42.55;32.13;;;;;;;;;;5073431;28;20039;-70
2021/09/15 05:33:57;;;;;;;38.45;30.60;;;;;;;;;;5072669;28;20048;-70
2021/09/15 05:37:03;;;;;;;49.85;28.95;;;;;;;;;;5072346;28;20043;-70
2021/09/15 05:40:08;;;;;;;60.35;31.20;;;;;;;;;;5072536;28;20043;-71
2021/09/15 05:43:22;;;;;;;43.10;29.90;;;;;;;;;;5072558;28;20040;-70
2021/09/15 05:46:26;;;;;;;47.40;29.92;;;;;;;;;;5060355;28;20048;-70
2021/09/15 05:49:31;;;;;;;38.97;28.30;;;;;;;;;;5072242;28;20047;-71
2021/09/15 05:52:35;;;;;;;43.40;29.30;;;;;;;;;;5073440;28;20036;-70
2021/09/15 05:55:39;;;;;;;33.38;27.30;;;;;;;;;;5072475;28;20044;-70
2021/09/15 05:58:44;;;;;;;43.05;27.73;;;;;;;;;;5073020;28;20040;-70
2021/09/15 06:01:49;;;;;;;41.22;27.48;;;;;;;;;;5072083;28;20047;-70
2021/09/15 06:04:54;;;;;;;47.13;28.25;;;;;;;;;;5072095;28;20417;-70
2021/09/15 06:08:06;;;;;;;45.05;31.40;;;;;;;;;;5071875;28;20059;-70
2021/09/15 06:11:10;;;;;;;56.67;34.65;;;;;;;;;;5072308;28;20039;-70
2021/09/15 06:14:15;;;;;;;39.28;30.98;;;;;;;;;;5071694;28;20040;-70
2021/09/15 06:17:20;;;;;;;50.38;30.38;;;;;;;;;;5071578;28;20515;-70
2021/09/15 06:20:24;;;;;;;39.58;28.20;;;;;;;;;;5071897;28;20043;-71
2021/09/15 06:23:44;;;;;;;34.70;23.75;;;;;;;;;;5071560;28;20598;-73
2021/09/15 06:26:52;;;;;;;40.90;25.38;;;;;;;;;;5072064;28;20048;-72
2021/09/15 06:29:57;;;;;;;34.88;26.30;;;;;;;;;;5071718;28;20047;-71
2021/09/15 06:33:02;;;;;;;34.35;24.25;;;;;;;;;;5072436;28;20052;-70
2021/09/15 06:36:06;;;;;;;33.08;23.80;;;;;;;;;;5072317;28;20500;-70
2021/09/15 06:39:10;;;;;;;39.65;22.75;;;;;;;;;;5072013;28;20051;-72
2021/09/15 06:42:18;;;;;;;28.98;20.27;;;;;;;;;;5072131;28;20039;-73
2021/09/15 06:45:22;;;;;;;31.73;20.33;;;;;;;;;;5070993;28;20507;-67
2021/09/15 06:48:27;;;;;;;37.45;19.60;;;;;;;;;;5071674;28;20059;-70
2021/09/15 06:51:31;;;;;;;23.10;16.95;;;;;;;;;;5071529;28;20039;-72
2021/09/15 06:54:37;;;;;;;24.13;16.05;;;;;;;;;;5071430;28;20060;-72
2021/09/15 06:57:42;;;;;;;23.52;17.70;;;;;;;;;;5071299;28;20063;-71
2021/09/15 07:00:47;;;;;;;29.67;17.23;;;;;;;;;;5071776;28;20043;-69
2021/09/15 07:03:52;;;;;;;27.55;15.93;;;;;;;;;;5071641;28;20598;-70
2021/09/15 07:06:57;;;;;;;27.38;15.85;;;;;;;;;;5071418;28;20044;-70
2021/09/15 07:10:01;;;;;;;23.15;14.38;;;;;;;;;;5071823;28;20052;-71
2021/09/15 07:13:06;;;;;;;21.48;12.98;;;;;;;;;;5071743;28;20051;-72
2021/09/15 07:16:10;;;;;;;16.90;11.63;;;;;;;;;;5071489;28;20047;-72
2021/09/15 07:19:15;;;;;;;14.55;11.27;;;;;;;;;;5071490;28;20047;-72
2021/09/15 07:22:19;;;;;;;16.13;10.93;;;;;;;;;;5071387;28;20032;-73
2021/09/15 07:25:23;;;;;;;28.08;14.50;;;;;;;;;;5071205;28;20110;-72
2021/09/15 07:28:28;;;;;;;21.65;11.73;;;;;;;;;;5071151;28;20056;-72
2021/09/15 07:31:37;;;;;;;27.10;11.60;;;;;;;;;;5071032;28;20055;-69
2021/09/15 07:34:44;;;;;;;24.45;10.98;;;;;;;;;;5071136;28;20396;-69
2021/09/15 07:37:48;;;;;;;21.27;10.25;;;;;;;;;;5071553;28;20054;-69
2021/09/15 07:40:53;;;;;;;24.25;10.07;;;;;;;;;;5071068;28;20055;-68
2021/09/15 07:43:57;;;;;;;16.17;9.43;;;;;;;;;;5071190;28;20055;-72
2021/09/15 07:47:02;;;;;;;20.90;9.85;;;;;;;;;;5070031;28;20047;-68
2021/09/15 07:50:06;;;;;;;15.02;9.07;;;;;;;;;;5070983;28;20044;-69
2021/09/15 07:53:11;;;;;;;17.27;8.48;;;;;;;;;;5071039;28;20053;-71
2021/09/15 07:56:15;;;;;;;12.98;8.98;;;;;;;;;;5070691;28;20036;-71
2021/09/15 07:59:20;;;;;;;13.50;8.43;;;;;;;;;;5070932;28;20044;-69
2021/09/15 08:02:24;;;;;;;24.95;9.82;;;;;;;;;;5070806;28;20094;-69
2021/09/15 08:05:29;;;;;;;11.48;8.32;;;;;;;;;;5070626;28;20531;-69
2021/09/15 08:08:33;;;;;;;14.52;8.25;;;;;;;;;;5070752;28;20048;-67
2021/09/15 08:11:37;;;;;;;16.58;7.50;;;;;;;;;;5071055;28;20032;-71
2021/09/15 08:14:42;;;;;;;14.90;8.52;;;;;;;;;;5069974;28;20045;-70
2021/09/15 08:17:46;;;;;;;21.38;9.63;;;;;;;;;;5070634;28;20036;-71
2021/09/15 08:20:51;;;;;;;23.33;10.23;;;;;;;;;;5070641;28;20033;-72
2021/09/15 08:23:55;;;;;;;16.27;8.55;;;;;;;;;;5070687;28;20047;-71
2021/09/15 08:27:00;;;;;;;15.82;9.52;;;;;;;;;;5070796;28;20499;-71
2021/09/15 08:30:04;;;;;;;18.95;8.98;;;;;;;;;;5070605;28;20036;-71
2021/09/15 08:33:09;;;;;;;10.20;7.80;;;;;;;;;;5070578;28;20044;-71
2021/09/15 08:36:13;;;;;;;9.95;7.18;;;;;;;;;;5070499;28;20047;-72
2021/09/15 08:39:17;;;;;;;11.68;7.60;;;;;;;;;;5070372;28;20033;-71
2021/09/15 08:42:21;;;;;;;8.93;7.10;;;;;;;;;;5070499;28;20048;-70
2021/09/15 08:45:27;;;;;;;12.48;7.88;;;;;;;;;;5070065;28;20036;-70
2021/09/15 08:48:35;;;;;;;12.00;7.15;;;;;;;;;;5069039;28;20056;-72
2021/09/15 08:51:39;;;;;;;12.20;8.25;;;;;;;;;;5069141;28;20040;-72
2021/09/15 08:54:44;;;;;;;13.82;8.60;;;;;;;;;;5070415;28;20033;-72
2021/09/15 08:57:48;;;;;;;14.88;7.93;;;;;;;;;;5070773;28;20516;-71
2021/09/15 09:01:06;;;;;;;17.05;7.88;;;;;;;;;;5069637;28;20032;-72
2021/09/15 09:04:13;;;;;;;14.85;7.68;;;;;;;;;;5070435;28;20032;-71
2021/09/15 09:07:17;;;;;;;16.30;8.68;;;;;;;;;;5070001;28;20518;-71
2021/09/15 09:10:22;;;;;;;15.75;8.95;;;;;;;;;;5070507;28;20056;-72
2021/09/15 09:13:26;;;;;;;12.23;9.20;;;;;;;;;;5070165;28;20024;-72
2021/09/15 09:16:39;;;;;;;10.00;8.38;;;;;;;;;;5070459;28;20061;-72
2021/09/15 09:19:43;;;;;;;19.58;9.38;;;;;;;;;;5070168;28;20484;-71
2021/09/15 09:23:07;;;;;;;13.05;9.35;;;;;;;;;;5071964;28;20392;-72
2021/09/15 09:26:11;;;;;;;13.98;8.55;;;;;;;;;;5073697;28;20043;-72
2021/09/15 09:29:17;;;;;;;18.70;8.80;;;;;;;;;;5073398;28;20052;-71
2021/09/15 09:32:22;;;;;;;17.60;9.00;;;;;;;;;;5072617;28;20040;-71
2021/09/15 09:35:39;;;;;;;19.85;9.20;;;;;;;;;;5072906;28;20036;-72
2021/09/15 09:38:46;;;;;;;16.65;9.90;;;;;;;;;;5073136;28;20044;-72
2021/09/15 09:41:55;;;;;;;19.65;9.60;;;;;;;;;;5072436;28;20060;-72
2021/09/15 09:45:05;;;;;;;16.30;8.85;;;;;;;;;;5073248;28;20040;-72
2021/09/15 09:48:10;;;;;;;13.35;9.43;;;;;;;;;;5073137;28;20044;-72
2021/09/15 09:51:44;;;;;;;10.38;8.10;;;;;;;;;;5073130;28;20095;-72
2021/09/15 09:54:57;;;;;;;14.57;8.65;;;;;;;;;;5073256;28;20520;-72
2021/09/15 09:58:03;;;;;;;11.80;7.75;;;;;;;;;;5073665;28;20043;-72
2021/09/15 10:01:09;;;;;;;11.82;7.38;;;;;;;;;;5073104;28;20047;-72
2021/09/15 10:04:14;;;;;;;9.50;8.23;;;;;;;;;;5072943;28;20055;-72
2021/09/15 10:07:18;;;;;;;12.00;8.23;;;;;;;;;;5072638;28;20044;-72
2021/09/15 10:10:22;;;;;;;15.23;8.60;;;;;;;;;;5072717;28;20052;-72
2021/09/15 10:13:26;;;;;;;15.73;9.10;;;;;;;;;;5072614;28;20036;-71
2021/09/15 10:16:32;;;;;;;14.05;8.50;;;;;;;;;;5072450;28;20047;-71
2021/09/15 10:19:39;;;;;;;14.45;9.88;;;;;;;;;;5072801;28;20036;-68
2021/09/15 10:22:47;;;;;;;12.65;8.25;;;;;;;;;;5072353;28;20081;-67
2021/09/15 10:25:52;;;;;;;12.95;8.10;;;;;;;;;;5072399;28;20039;-69
2021/09/15 10:29:15;;;;;;;13.00;7.85;;;;;;;;;;5072387;28;20045;-68
2021/09/15 10:32:31;;;;;;;12.68;8.27;;;;;;;;;;5072324;28;20041;-69
2021/09/15 10:35:45;;;;;;;18.27;9.88;;;;;;;;;;5072388;28;20348;-70
2021/09/15 10:38:58;;;;;;;15.80;8.73;;;;;;;;;;5072380;28;20384;-70
2021/09/15 10:42:04;;;;;;;17.00;8.80;;;;;;;;;;5072343;28;20048;-69
2021/09/15 10:45:29;;;;;;;17.45;8.82;;;;;;;;;;5071956;28;20048;-69
2021/09/15 10:48:33;;;;;;;24.27;9.13;;;;;;;;;;5072015;28;20052;-71
2021/09/15 10:51:38;;;;;;;14.27;8.05;;;;;;;;;;5072074;28;20039;-69
2021/09/15 10:54:53;;;;;;;11.30;9.38;;;;;;;;;;5071908;28;20049;-68
2021/09/15 10:58:09;;;;;;;15.38;9.30;;;;;;;;;;5072003;28;20033;-72
2021/09/15 11:01:13;;;;;;;10.95;8.30;;;;;;;;;;5071707;28;20053;-71
2021/09/15 11:04:32;;;;;;;11.15;8.70;;;;;;;;;;5070851;28;20028;-70
2021/09/15 11:07:49;;;;;;;12.65;8.95;;;;;;;;;;5071279;28;20053;-71
2021/09/15 11:10:53;;;;;;;18.92;9.07;;;;;;;;;;5071786;28;20412;-70
2021/09/15 11:14:06;;;;;;;10.20;8.13;;;;;;;;;;5070379;28;20043;-70
2021/09/15 11:17:10;;;;;;;15.18;9.23;;;;;;;;;;5071264;28;20522;-69
2021/09/15 11:20:15;;;;;;;9.88;7.90;;;;;;;;;;5071436;28;20407;-69
2021/09/15 11:23:19;;;;;;;16.17;8.45;;;;;;;;;;5071750;28;20040;-69
2021/09/15 11:26:43;;;;;;;9.57;7.68;;;;;;;;;;5071450;28;20390;-69
2021/09/15 11:29:52;;;;;;;9.23;7.00;;;;;;;;;;5071478;28;20492;-70
2021/09/15 11:32:57;;;;;;;14.25;7.85;;;;;;;;;;5071404;28;20028;-70
2021/09/15 11:36:06;;;;;;;10.50;6.53;;;;;;;;;;5071525;28;20040;-70
2021/09/15 11:39:10;;;;;;;21.13;6.90;;;;;;;;;;5071284;28;20040;-69
2021/09/15 11:42:20;;;;;;;8.45;5.63;;;;;;;;;;5070504;28;20507;-69
2021/09/15 11:45:25;;;;;;;17.60;7.07;;;;;;;;;;5070649;28;20040;-70
2021/09/15 11:48:30;;;;;;;12.55;6.72;;;;;;;;;;5069832;28;20044;-69
2021/09/15 11:51:36;;;;;;;14.63;6.90;;;;;;;;;;5070928;28;20041;-69
2021/09/15 11:54:42;;;;;;;8.98;6.13;;;;;;;;;;5071241;28;20051;-70
2021/09/15 11:57:47;;;;;;;8.90;6.10;;;;;;;;;;5071443;28;20036;-69
2021/09/15 12:00:51;;;;;;;17.90;6.38;;;;;;;;;;5071349;28;20037;-70
2021/09/15 12:04:09;;;;;;;10.48;5.22;;;;;;;;;;5071533;28;20040;-69
2021/09/15 12:07:16;;;;;;;7.88;5.60;;;;;;;;;;5071158;28;20056;-69
2021/09/15 12:10:21;;;;;;;11.27;6.00;;;;;;;;;;5071332;28;20053;-69
2021/09/15 12:13:29;;;;;;;8.15;5.70;;;;;;;;;;5071674;28;20036;-69
2021/09/15 12:16:38;;;;;;;10.00;6.55;;;;;;;;;;5070931;28;20040;-69
2021/09/15 12:19:49;;;;;;;8.40;5.25;;;;;;;;;;5070846;28;20370;-69
2021/09/15 12:22:53;;;;;;;7.20;5.45;;;;;;;;;;5070563;28;20041;-69
2021/09/15 12:26:04;;;;;;;10.43;6.57;;;;;;;;;;5070982;28;20033;-69
2021/09/15 12:29:12;;;;;;;7.28;5.85;;;;;;;;;;5070710;28;20044;-70
2021/09/15 12:32:26;;;;;;;13.18;5.60;;;;;;;;;;5071776;28;20041;-69
2021/09/15 12:35:35;;;;;;;8.23;4.93;;;;;;;;;;5070872;28;20052;-75
2021/09/15 12:38:50;;;;;;;6.10;5.13;;;;;;;;;;5071100;28;20040;-72
2021/09/15 12:41:56;;;;;;;8.52;5.80;;;;;;;;;;5070901;28;20041;-73
2021/09/15 12:45:00;;;;;;;8.13;5.78;;;;;;;;;;5070758;28;20040;-73
2021/09/15 12:48:14;;;;;;;11.65;5.90;;;;;;;;;;5070623;28;20049;-74
2021/09/15 12:51:19;;;;;;;14.10;6.50;;;;;;;;;;5070860;28;20060;-72
2021/09/15 12:54:23;;;;;;;10.13;6.22;;;;;;;;;;5070557;28;20035;-72
2021/09/15 12:57:29;;;;;;;9.40;5.55;;;;;;;;;;5072784;28;20048;-71
2021/09/15 13:00:34;;;;;;;10.77;6.28;;;;;;;;;;5074210;28;20036;-70
2021/09/15 13:03:40;;;;;;;8.02;5.15;;;;;;;;;;5074134;28;20043;-70
2021/09/15 13:06:45;;;;;;;6.95;5.07;;;;;;;;;;5073988;28;20036;-70
2021/09/15 13:09:50;;;;;;;12.98;6.00;;;;;;;;;;5073868;28;20377;-70
2021/09/15 13:12:54;;;;;;;8.90;5.90;;;;;;;;;;5072977;28;20041;-72
2021/09/15 13:15:59;;;;;;;14.07;6.32;;;;;;;;;;5073204;28;20040;-69
2021/09/15 13:19:03;;;;;;;10.40;6.32;;;;;;;;;;5073788;28;20051;-69
2021/09/15 13:22:11;;;;;;;14.23;6.30;;;;;;;;;;5073398;28;20403;-71
2021/09/15 13:25:16;;;;;;;7.40;5.32;;;;;;;;;;5073858;28;20059;-71
2021/09/15 13:28:20;;;;;;;44.45;9.27;;;;;;;;;;5073473;28;20044;-72
2021/09/15 13:31:24;;;;;;;93.25;10.70;;;;;;;;;;5073758;28;20475;-71
2021/09/15 13:34:29;;;;;;;17.38;7.10;;;;;;;;;;5073910;28;20051;-72
2021/09/15 13:37:33;;;;;;;14.77;6.55;;;;;;;;;;5073247;28;20063;-72
2021/09/15 13:40:37;;;;;;;17.58;6.43;;;;;;;;;;5071768;28;20043;-72
2021/09/15 13:43:42;;;;;;;11.55;6.10;;;;;;;;;;5072939;28;20061;-72
2021/09/15 13:46:46;;;;;;;8.05;5.45;;;;;;;;;;5071915;28;20036;-72
2021/09/15 13:49:50;;;;;;;39.72;8.00;;;;;;;;;;5073351;28;20048;-72
2021/09/15 13:52:56;;;;;;;8.25;4.97;;;;;;;;;;5073501;28;20067;-72
2021/09/15 13:56:00;;;;;;;51.83;6.80;;;;;;;;;;5072952;28;20393;-72
2021/09/15 13:59:04;;;;;;;87.57;9.30;;;;;;;;;;5073156;28;20044;-72
2021/09/15 14:02:09;;;;;;;21.70;5.82;;;;;;;;;;5072381;28;20044;-73
2021/09/15 14:05:13;;;;;;;22.55;6.22;;;;;;;;;;5072964;28;20036;-72
2021/09/15 14:08:17;;;;;;;21.10;4.85;;;;;;;;;;5072102;28;20385;-72
2021/09/15 14:11:22;;;;;;;13.80;4.78;;;;;;;;;;5072744;28;20060;-72
2021/09/15 14:14:26;;;;;;;14.43;4.45;;;;;;;;;;5071854;28;20052;-74
2021/09/15 14:17:31;;;;;;;12.63;5.05;;;;;;;;;;5072966;28;20044;-72
2021/09/15 14:20:35;;;;;;;10.18;4.80;;;;;;;;;;5070330;28;20032;-73
2021/09/15 14:23:40;;;;;;;11.60;4.10;;;;;;;;;;5072076;28;20059;-72
2021/09/15 14:26:44;;;;;;;9.45;4.43;;;;;;;;;;5072542;28;20034;-72
2021/09/15 14:29:48;;;;;;;6.78;4.07;;;;;;;;;;5072495;28;20048;-70
2021/09/15 14:32:53;;;;;;;6.93;4.88;;;;;;;;;;5071410;28;20309;-74
2021/09/15 14:35:57;;;;;;;10.95;5.63;;;;;;;;;;5072313;28;20040;-73
2021/09/15 14:39:02;;;;;;;10.77;6.88;;;;;;;;;;5072373;28;20037;-73
2021/09/15 14:42:06;;;;;;;26.02;7.88;;;;;;;;;;5072386;28;20059;-71
2021/09/15 14:45:11;;;;;;;8.18;6.28;;;;;;;;;;5071844;28;20500;-73
2021/09/15 14:48:15;;;;;;;15.07;6.55;;;;;;;;;;5071182;28;20040;-72
2021/09/15 14:51:19;;;;;;;10.27;6.32;;;;;;;;;;5071836;28;20056;-74
2021/09/15 14:54:24;;;;;;;10.02;6.63;;;;;;;;;;5071828;28;20033;-75
2021/09/15 14:57:28;;;;;;;25.33;9.55;;;;;;;;;;5071831;28;20036;-72
2021/09/15 15:00:32;;;;;;;8.15;5.88;;;;;;;;;;5071549;28;20063;-74
2021/09/15 15:03:38;;;;;;;9.30;6.20;;;;;;;;;;5071661;28;20045;-72
2021/09/15 15:06:42;;;;;;;9.20;6.13;;;;;;;;;;5071418;28;20036;-72
2021/09/15 15:09:51;;;;;;;6.05;5.45;;;;;;;;;;5071486;28;20048;-70
2021/09/15 15:12:55;;;;;;;15.57;5.75;;;;;;;;;;5071271;28;20041;-70
2021/09/15 15:15:59;;;;;;;6.82;5.38;;;;;;;;;;5071565;28;20048;-73
2021/09/15 15:19:05;;;;;;;14.10;7.78;;;;;;;;;;5070716;28;20048;-69
2021/09/15 15:22:09;;;;;;;11.50;6.30;;;;;;;;;;5071189;28;20043;-69
2021/09/15 15:25:14;;;;;;;8.43;5.90;;;;;;;;;;5071149;28;20044;-68
2021/09/15 15:28:18;;;;;;;13.45;6.25;;;;;;;;;;5068498;28;20044;-68
2021/09/15 15:31:23;;;;;;;9.68;6.95;;;;;;;;;;5069413;28;20056;-68
2021/09/15 15:34:28;;;;;;;10.73;6.03;;;;;;;;;;5070988;28;20484;-68
2021/09/15 15:37:33;;;;;;;24.58;7.68;;;;;;;;;;5070854;28;20047;-68
2021/09/15 15:40:38;;;;;;;8.88;5.82;;;;;;;;;;5070731;28;20039;-68
2021/09/15 15:43:42;;;;;;;9.25;6.22;;;;;;;;;;5070893;28;20365;-68
2021/09/15 15:46:47;;;;;;;10.57;6.05;;;;;;;;;;5069994;28;20469;-68
2021/09/15 15:49:51;;;;;;;7.72;5.32;;;;;;;;;;5070474;28;20044;-68
2021/09/15 15:52:56;;;;;;;10.73;6.20;;;;;;;;;;5070187;28;20040;-67
2021/09/15 15:56:01;;;;;;;9.25;5.50;;;;;;;;;;5070630;28;20052;-68
2021/09/15 15:59:06;;;;;;;7.05;5.65;;;;;;;;;;5070377;28;20373;-68
2021/09/15 16:02:10;;;;;;;10.57;5.35;;;;;;;;;;5068820;28;20041;-68
2021/09/15 16:05:15;;;;;;;9.82;6.15;;;;;;;;;;5070911;28;20041;-68
2021/09/15 16:08:19;;;;;;;9.40;5.57;;;;;;;;;;5070164;28;20052;-68
2021/09/15 16:11:23;;;;;;;9.52;5.05;;;;;;;;;;5070515;28;20033;-67
2021/09/15 16:14:27;;;;;;;6.88;4.70;;;;;;;;;;5069480;28;20041;-67
2021/09/15 16:17:32;;;;;;;9.05;5.07;;;;;;;;;;5070269;28;20040;-68
2021/09/15 16:20:37;;;;;;;14.52;5.05;;;;;;;;;;5070117;28;20029;-67
2021/09/15 16:23:41;;;;;;;12.15;5.45;;;;;;;;;;5070346;28;20040;-68
2021/09/15 16:26:46;;;;;;;13.35;4.78;;;;;;;;;;5069413;28;20048;-68
2021/09/15 16:29:50;;;;;;;10.60;5.03;;;;;;;;;;5070182;28;20068;-68
2021/09/15 16:32:54;;;;;;;17.58;6.10;;;;;;;;;;5074193;28;20392;-68
2021/09/15 16:35:59;;;;;;;11.40;5.78;;;;;;;;;;5073979;28;20045;-68
2021/09/15 16:39:03;;;;;;;12.85;6.45;;;;;;;;;;5073881;28;20040;-67
2021/09/15 16:42:07;;;;;;;9.80;5.10;;;;;;;;;;5074523;28;20044;-68
2021/09/15 16:45:12;;;;;;;18.88;5.57;;;;;;;;;;5074227;28;20048;-68
2021/09/15 16:48:16;;;;;;;10.50;5.50;;;;;;;;;;5074095;28;20037;-68
2021/09/15 16:51:20;;;;;;;10.02;5.03;;;;;;;;;;5073277;28;20041;-68
2021/09/15 16:54:25;;;;;;;12.55;5.68;;;;;;;;;;5073856;28;20036;-68
2021/09/15 16:57:29;;;;;;;10.93;5.32;;;;;;;;;;5074029;28;20033;-69
2021/09/15 17:00:35;;;;;;;13.93;5.50;;;;;;;;;;5073827;28;20048;-74
2021/09/15 17:03:39;;;;;;;14.38;5.95;;;;;;;;;;5073542;28;20050;-77
2021/09/15 17:06:44;;;;;;;12.05;5.15;;;;;;;;;;5073718;28;20032;-76
2021/09/15 17:09:48;;;;;;;12.45;5.45;;;;;;;;;;5073889;28;20044;-71
2021/09/15 17:12:54;;;;;;;13.75;5.82;;;;;;;;;;5073709;28;20039;-69
2021/09/15 17:15:58;;;;;;;10.75;6.00;;;;;;;;;;5073334;28;20051;-69
2021/09/15 17:19:03;;;;;;;12.52;5.80;;;;;;;;;;5073573;28;20047;-68
2021/09/15 17:22:07;;;;;;;10.52;5.80;;;;;;;;;;5073307;28;20499;-68
2021/09/15 17:25:11;;;;;;;10.93;6.22;;;;;;;;;;5073033;28;20040;-69
2021/09/15 17:28:16;;;;;;;13.90;5.93;;;;;;;;;;5073295;28;20043;-69
2021/09/15 17:31:20;;;;;;;9.35;5.43;;;;;;;;;;5073523;28;20045;-68
2021/09/15 17:34:27;;;;;;;10.18;6.22;;;;;;;;;;5073110;28;20040;-69
2021/09/15 17:37:32;;;;;;;26.95;9.00;;;;;;;;;;5073114;28;20053;-69
2021/09/15 17:40:38;;;;;;;24.45;9.55;;;;;;;;;;5073096;28;20052;-69
2021/09/15 17:43:41;;;;;;;12.88;7.18;;;;;;;;;;5072002;28;20041;-69
2021/09/15 17:46:46;;;;;;;10.13;6.57;;;;;;;;;;5071673;28;20517;-69
2021/09/15 17:49:50;;;;;;;16.67;5.90;;;;;;;;;;5072745;28;20051;-67
2021/09/15 17:52:54;;;;;;;9.05;6.32;;;;;;;;;;5072702;28;20048;-67
2021/09/15 17:55:59;;;;;;;13.68;7.40;;;;;;;;;;5072033;28;20037;-67
2021/09/15 17:59:03;;;;;;;17.83;9.32;;;;;;;;;;5072847;28;20516;-67
2021/09/15 18:02:07;;;;;;;21.35;9.98;;;;;;;;;;5072542;28;20522;-67
2021/09/15 18:05:13;;;;;;;17.42;9.02;;;;;;;;;;5073014;28;20039;-67
2021/09/15 18:08:18;;;;;;;25.20;9.90;;;;;;;;;;5072390;28;20049;-67
2021/09/15 18:11:22;;;;;;;23.95;9.38;;;;;;;;;;5072193;28;20053;-67
2021/09/15 18:14:26;;;;;;;19.17;9.65;;;;;;;;;;5072154;28;20033;-66
2021/09/15 18:17:31;;;;;;;20.88;9.55;;;;;;;;;;5072278;28;20040;-67
2021/09/15 18:20:35;;;;;;;15.68;8.07;;;;;;;;;;5072403;28;20040;-67
2021/09/15 18:23:40;;;;;;;20.48;9.48;;;;;;;;;;5072004;28;20041;-67